sensor_id;sensor_type;location;lat;lon;timestamp;P1;durP1;ratioP1;P2;durP2;ratioP2
44000;SDS011;29660;42.892;24.710;2024-03-02T00:00:42;55.65;;;40.55;;
44000;SDS011;29660;42.892;24.710;2024-03-02T00:06:04;52.80;;;38.28;;
44000;SDS011;29660;42.892;24.710;2024-03-02T00:11:27;57.58;;;38.65;;
44000;SDS011;29660;42.892;24.710;2024-03-02T00:16:49;58.83;;;40.55;;
44000;SDS011;29660;42.892;24.710;2024-03-02T00:22:12;56.67;;;39.97;;
44000;SDS011;29660;42.892;24.710;2024-03-02T00:27:35;59.15;;;41.53;;
44000;SDS011;29660;42.892;24.710;2024-03-02T00:32:57;59.20;;;40.08;;
44000;SDS011;29660;42.892;24.710;2024-03-02T00:38:20;60.08;;;40.20;;
44000;SDS011;29660;42.892;24.710;2024-03-02T00:43:43;58.53;;;39.28;;
44000;SDS011;29660;42.892;24.710;2024-03-02T00:49:17;61.05;;;41.20;;
44000;SDS011;29660;42.892;24.710;2024-03-02T00:54:42;58.58;;;39.92;;
44000;SDS011;29660;42.892;24.710;2024-03-02T01:00:06;62.28;;;40.67;;
44000;SDS011;29660;42.892;24.710;2024-03-02T01:05:31;71.75;;;43.92;;
44000;SDS011;29660;42.892;24.710;2024-03-02T01:10:53;61.88;;;41.05;;
44000;SDS011;29660;42.892;24.710;2024-03-02T01:16:16;66.78;;;41.33;;
44000;SDS011;29660;42.892;24.710;2024-03-02T01:21:38;70.10;;;44.38;;
44000;SDS011;29660;42.892;24.710;2024-03-02T01:27:00;63.08;;;42.13;;
44000;SDS011;29660;42.892;24.710;2024-03-02T01:32:22;63.65;;;41.78;;
44000;SDS011;29660;42.892;24.710;2024-03-02T01:37:45;64.80;;;42.83;;
44000;SDS011;29660;42.892;24.710;2024-03-02T01:43:07;70.50;;;43.72;;
44000;SDS011;29660;42.892;24.710;2024-03-02T01:48:29;70.05;;;43.72;;
44000;SDS011;29660;42.892;24.710;2024-03-02T01:53:51;72.20;;;44.75;;
44000;SDS011;29660;42.892;24.710;2024-03-02T01:59:13;71.93;;;47.58;;
44000;SDS011;29660;42.892;24.710;2024-03-02T02:04:35;77.57;;;45.83;;
44000;SDS011;29660;42.892;24.710;2024-03-02T02:09:57;71.40;;;45.75;;
44000;SDS011;29660;42.892;24.710;2024-03-02T02:15:26;80.05;;;49.92;;
44000;SDS011;29660;42.892;24.710;2024-03-02T02:20:49;84.30;;;51.10;;
44000;SDS011;29660;42.892;24.710;2024-03-02T02:26:11;87.47;;;50.53;;
44000;SDS011;29660;42.892;24.710;2024-03-02T02:31:37;70.78;;;44.85;;
44000;SDS011;29660;42.892;24.710;2024-03-02T02:37:00;72.43;;;45.45;;
44000;SDS011;29660;42.892;24.710;2024-03-02T02:42:23;66.90;;;43.55;;
44000;SDS011;29660;42.892;24.710;2024-03-02T02:47:45;72.07;;;45.97;;
44000;SDS011;29660;42.892;24.710;2024-03-02T02:53:07;67.30;;;43.88;;
44000;SDS011;29660;42.892;24.710;2024-03-02T02:58:31;69.68;;;45.65;;
44000;SDS011;29660;42.892;24.710;2024-03-02T03:03:53;68.55;;;44.65;;
44000;SDS011;29660;42.892;24.710;2024-03-02T03:09:15;70.10;;;44.35;;
44000;SDS011;29660;42.892;24.710;2024-03-02T03:14:37;68.43;;;43.55;;
44000;SDS011;29660;42.892;24.710;2024-03-02T03:20:02;83.00;;;48.72;;
44000;SDS011;29660;42.892;24.710;2024-03-02T03:25:25;80.18;;;48.13;;
44000;SDS011;29660;42.892;24.710;2024-03-02T03:30:48;80.13;;;47.75;;
44000;SDS011;29660;42.892;24.710;2024-03-02T03:36:10;71.57;;;46.95;;
44000;SDS011;29660;42.892;24.710;2024-03-02T03:41:32;70.20;;;46.00;;
44000;SDS011;29660;42.892;24.710;2024-03-02T03:46:54;73.00;;;46.92;;
44000;SDS011;29660;42.892;24.710;2024-03-02T03:52:16;71.25;;;46.42;;
44000;SDS011;29660;42.892;24.710;2024-03-02T03:57:39;67.53;;;45.15;;
44000;SDS011;29660;42.892;24.710;2024-03-02T04:03:01;65.35;;;44.05;;
44000;SDS011;29660;42.892;24.710;2024-03-02T04:08:23;70.20;;;46.35;;
44000;SDS011;29660;42.892;24.710;2024-03-02T04:13:45;77.57;;;48.67;;
44000;SDS011;29660;42.892;24.710;2024-03-02T04:19:07;69.78;;;44.30;;
44000;SDS011;29660;42.892;24.710;2024-03-02T04:24:29;69.57;;;44.35;;
44000;SDS011;29660;42.892;24.710;2024-03-02T04:29:52;69.85;;;44.22;;
44000;SDS011;29660;42.892;24.710;2024-03-02T04:35:14;77.15;;;47.40;;
44000;SDS011;29660;42.892;24.710;2024-03-02T04:40:36;76.82;;;46.72;;
44000;SDS011;29660;42.892;24.710;2024-03-02T04:45:58;92.30;;;48.22;;
44000;SDS011;29660;42.892;24.710;2024-03-02T04:51:21;71.78;;;44.25;;
44000;SDS011;29660;42.892;24.710;2024-03-02T04:56:43;74.03;;;44.42;;
44000;SDS011;29660;42.892;24.710;2024-03-02T05:02:12;77.47;;;46.27;;
44000;SDS011;29660;42.892;24.710;2024-03-02T05:07:35;74.85;;;44.63;;
44000;SDS011;29660;42.892;24.710;2024-03-02T05:12:57;97.95;;;58.88;;
44000;SDS011;29660;42.892;24.710;2024-03-02T05:18:21;69.85;;;46.80;;
44000;SDS011;29660;42.892;24.710;2024-03-02T05:23:45;66.70;;;42.15;;
44000;SDS011;29660;42.892;24.710;2024-03-02T05:29:07;68.88;;;45.38;;
44000;SDS011;29660;42.892;24.710;2024-03-02T05:34:29;75.47;;;50.47;;
44000;SDS011;29660;42.892;24.710;2024-03-02T05:39:52;66.00;;;40.70;;
44000;SDS011;29660;42.892;24.710;2024-03-02T05:45:15;63.10;;;43.67;;
44000;SDS011;29660;42.892;24.710;2024-03-02T05:50:38;85.25;;;60.95;;
44000;SDS011;29660;42.892;24.710;2024-03-02T05:56:00;62.15;;;41.03;;
44000;SDS011;29660;42.892;24.710;2024-03-02T06:01:24;106.57;;;74.35;;
44000;SDS011;29660;42.892;24.710;2024-03-02T06:06:50;100.53;;;64.65;;
44000;SDS011;29660;42.892;24.710;2024-03-02T06:12:12;62.90;;;41.72;;
44000;SDS011;29660;42.892;24.710;2024-03-02T06:17:35;56.35;;;38.60;;
44000;SDS011;29660;42.892;24.710;2024-03-02T06:22:57;84.00;;;50.67;;
44000;SDS011;29660;42.892;24.710;2024-03-02T06:28:19;68.35;;;42.13;;
44000;SDS011;29660;42.892;24.710;2024-03-02T06:33:42;62.60;;;41.20;;
44000;SDS011;29660;42.892;24.710;2024-03-02T06:39:04;61.10;;;39.15;;
44000;SDS011;29660;42.892;24.710;2024-03-02T06:44:26;59.28;;;40.92;;
44000;SDS011;29660;42.892;24.710;2024-03-02T06:49:48;71.88;;;49.13;;
44000;SDS011;29660;42.892;24.710;2024-03-02T06:55:10;56.55;;;37.28;;
44000;SDS011;29660;42.892;24.710;2024-03-02T07:00:33;65.93;;;43.75;;
44000;SDS011;29660;42.892;24.710;2024-03-02T07:05:55;53.28;;;38.13;;
44000;SDS011;29660;42.892;24.710;2024-03-02T07:11:17;57.78;;;39.38;;
44000;SDS011;29660;42.892;24.710;2024-03-02T07:16:58;54.17;;;38.72;;
44000;SDS011;29660;42.892;24.710;2024-03-02T07:22:20;55.47;;;39.53;;
44000;SDS011;29660;42.892;24.710;2024-03-02T07:27:42;43.40;;;32.92;;
44000;SDS011;29660;42.892;24.710;2024-03-02T07:33:06;42.28;;;32.63;;
44000;SDS011;29660;42.892;24.710;2024-03-02T07:38:28;37.25;;;27.98;;
44000;SDS011;29660;42.892;24.710;2024-03-02T07:43:51;38.85;;;28.48;;
44000;SDS011;29660;42.892;24.710;2024-03-02T07:49:13;40.55;;;30.95;;
44000;SDS011;29660;42.892;24.710;2024-03-02T07:54:38;39.53;;;31.45;;
44000;SDS011;29660;42.892;24.710;2024-03-02T08:00:00;48.70;;;34.38;;
44000;SDS011;29660;42.892;24.710;2024-03-02T08:05:32;37.60;;;29.20;;
44000;SDS011;29660;42.892;24.710;2024-03-02T08:10:54;36.72;;;28.17;;
44000;SDS011;29660;42.892;24.710;2024-03-02T08:16:18;37.17;;;31.00;;
44000;SDS011;29660;42.892;24.710;2024-03-02T08:21:42;31.45;;;25.88;;
44000;SDS011;29660;42.892;24.710;2024-03-02T08:27:05;31.65;;;23.67;;
44000;SDS011;29660;42.892;24.710;2024-03-02T08:32:27;32.58;;;28.10;;
44000;SDS011;29660;42.892;24.710;2024-03-02T08:37:49;29.83;;;26.42;;
44000;SDS011;29660;42.892;24.710;2024-03-02T08:43:12;50.97;;;33.17;;
44000;SDS011;29660;42.892;24.710;2024-03-02T08:48:34;40.72;;;33.13;;
44000;SDS011;29660;42.892;24.710;2024-03-02T08:53:56;45.15;;;35.10;;
44000;SDS011;29660;42.892;24.710;2024-03-02T08:59:19;61.88;;;46.20;;
44000;SDS011;29660;42.892;24.710;2024-03-02T09:04:41;46.28;;;34.58;;
44000;SDS011;29660;42.892;24.710;2024-03-02T09:10:04;34.08;;;27.83;;
44000;SDS011;29660;42.892;24.710;2024-03-02T09:15:27;48.42;;;37.28;;
44000;SDS011;29660;42.892;24.710;2024-03-02T09:20:49;38.92;;;30.63;;
44000;SDS011;29660;42.892;24.710;2024-03-02T09:26:11;34.00;;;26.75;;
44000;SDS011;29660;42.892;24.710;2024-03-02T09:31:39;33.17;;;25.55;;
44000;SDS011;29660;42.892;24.710;2024-03-02T09:37:04;28.90;;;22.65;;
44000;SDS011;29660;42.892;24.710;2024-03-02T09:42:27;17.85;;;15.05;;
44000;SDS011;29660;42.892;24.710;2024-03-02T09:47:49;22.23;;;17.35;;
44000;SDS011;29660;42.892;24.710;2024-03-02T09:53:12;18.48;;;15.93;;
44000;SDS011;29660;42.892;24.710;2024-03-02T09:58:36;20.38;;;17.85;;
44000;SDS011;29660;42.892;24.710;2024-03-02T10:03:59;17.85;;;15.23;;
44000;SDS011;29660;42.892;24.710;2024-03-02T10:09:27;14.32;;;12.82;;
44000;SDS011;29660;42.892;24.710;2024-03-02T10:14:51;14.98;;;13.38;;
44000;SDS011;29660;42.892;24.710;2024-03-02T10:20:25;18.67;;;14.15;;
44000;SDS011;29660;42.892;24.710;2024-03-02T10:25:50;15.52;;;13.90;;
44000;SDS011;29660;42.892;24.710;2024-03-02T10:31:15;20.25;;;17.77;;
44000;SDS011;29660;42.892;24.710;2024-03-02T10:36:42;27.30;;;22.30;;
44000;SDS011;29660;42.892;24.710;2024-03-02T10:42:08;13.63;;;11.82;;
44000;SDS011;29660;42.892;24.710;2024-03-02T10:47:31;17.92;;;14.93;;
44000;SDS011;29660;42.892;24.710;2024-03-02T10:52:55;18.05;;;14.65;;
44000;SDS011;29660;42.892;24.710;2024-03-02T10:58:17;15.00;;;13.45;;
44000;SDS011;29660;42.892;24.710;2024-03-02T11:03:40;26.00;;;21.42;;
44000;SDS011;29660;42.892;24.710;2024-03-02T11:09:04;20.13;;;17.40;;
44000;SDS011;29660;42.892;24.710;2024-03-02T11:14:31;20.08;;;17.55;;
44000;SDS011;29660;42.892;24.710;2024-03-02T11:19:54;21.33;;;18.55;;
44000;SDS011;29660;42.892;24.710;2024-03-02T11:25:24;19.52;;;15.98;;
44000;SDS011;29660;42.892;24.710;2024-03-02T11:30:48;20.73;;;16.90;;
44000;SDS011;29660;42.892;24.710;2024-03-02T11:36:13;24.00;;;19.92;;
44000;SDS011;29660;42.892;24.710;2024-03-02T11:41:35;22.92;;;19.30;;
44000;SDS011;29660;42.892;24.710;2024-03-02T11:47:07;16.10;;;14.45;;
44000;SDS011;29660;42.892;24.710;2024-03-02T11:52:30;15.60;;;14.00;;
44000;SDS011;29660;42.892;24.710;2024-03-02T11:57:52;41.47;;;33.35;;
44000;SDS011;29660;42.892;24.710;2024-03-02T12:03:15;22.30;;;18.27;;
44000;SDS011;29660;42.892;24.710;2024-03-02T12:08:37;18.48;;;16.48;;
44000;SDS011;29660;42.892;24.710;2024-03-02T12:14:00;14.00;;;12.18;;
44000;SDS011;29660;42.892;24.710;2024-03-02T12:19:22;19.08;;;14.20;;
44000;SDS011;29660;42.892;24.710;2024-03-02T12:24:44;11.65;;;10.20;;
44000;SDS011;29660;42.892;24.710;2024-03-02T12:30:09;12.65;;;11.32;;
44000;SDS011;29660;42.892;24.710;2024-03-02T12:35:32;16.83;;;13.82;;
44000;SDS011;29660;42.892;24.710;2024-03-02T12:40:54;12.88;;;11.52;;
44000;SDS011;29660;42.892;24.710;2024-03-02T12:46:16;16.60;;;14.82;;
44000;SDS011;29660;42.892;24.710;2024-03-02T12:51:39;69.15;;;36.83;;
44000;SDS011;29660;42.892;24.710;2024-03-02T12:57:04;12.50;;;11.20;;
44000;SDS011;29660;42.892;24.710;2024-03-02T13:02:30;15.35;;;12.70;;
44000;SDS011;29660;42.892;24.710;2024-03-02T13:07:53;17.17;;;13.43;;
44000;SDS011;29660;42.892;24.710;2024-03-02T13:13:16;25.98;;;20.20;;
44000;SDS011;29660;42.892;24.710;2024-03-02T13:18:39;31.55;;;25.25;;
44000;SDS011;29660;42.892;24.710;2024-03-02T13:24:04;30.60;;;23.65;;
44000;SDS011;29660;42.892;24.710;2024-03-02T13:29:27;33.58;;;26.15;;
44000;SDS011;29660;42.892;24.710;2024-03-02T13:34:49;20.77;;;16.00;;
44000;SDS011;29660;42.892;24.710;2024-03-02T13:40:11;25.35;;;22.75;;
44000;SDS011;29660;42.892;24.710;2024-03-02T13:45:39;16.25;;;14.13;;
44000;SDS011;29660;42.892;24.710;2024-03-02T13:51:01;41.90;;;27.25;;
44000;SDS011;29660;42.892;24.710;2024-03-02T13:56:24;18.23;;;13.82;;
44000;SDS011;29660;42.892;24.710;2024-03-02T14:01:46;17.02;;;14.95;;
44000;SDS011;29660;42.892;24.710;2024-03-02T14:07:08;22.58;;;19.65;;
44000;SDS011;29660;42.892;24.710;2024-03-02T14:12:30;39.05;;;27.67;;
44000;SDS011;29660;42.892;24.710;2024-03-02T14:17:53;25.40;;;19.92;;
44000;SDS011;29660;42.892;24.710;2024-03-02T14:23:15;21.50;;;16.35;;
44000;SDS011;29660;42.892;24.710;2024-03-02T14:28:37;43.22;;;26.70;;
44000;SDS011;29660;42.892;24.710;2024-03-02T14:34:08;22.60;;;18.00;;
44000;SDS011;29660;42.892;24.710;2024-03-02T14:39:30;17.15;;;13.02;;
44000;SDS011;29660;42.892;24.710;2024-03-02T14:44:56;86.60;;;49.80;;
44000;SDS011;29660;42.892;24.710;2024-03-02T14:50:20;15.38;;;13.57;;
44000;SDS011;29660;42.892;24.710;2024-03-02T14:55:42;20.45;;;17.27;;
44000;SDS011;29660;42.892;24.710;2024-03-02T15:01:04;21.27;;;18.70;;
44000;SDS011;29660;42.892;24.710;2024-03-02T15:06:30;31.10;;;23.63;;
44000;SDS011;29660;42.892;24.710;2024-03-02T15:11:52;29.95;;;22.70;;
44000;SDS011;29660;42.892;24.710;2024-03-02T15:17:15;34.03;;;27.40;;
44000;SDS011;29660;42.892;24.710;2024-03-02T15:22:38;32.80;;;25.13;;
44000;SDS011;29660;42.892;24.710;2024-03-02T15:28:00;36.03;;;28.42;;
44000;SDS011;29660;42.892;24.710;2024-03-02T15:33:23;40.50;;;29.27;;
44000;SDS011;29660;42.892;24.710;2024-03-02T15:38:51;54.53;;;40.63;;
44000;SDS011;29660;42.892;24.710;2024-03-02T15:44:13;45.58;;;34.35;;
44000;SDS011;29660;42.892;24.710;2024-03-02T15:49:35;37.70;;;31.52;;
44000;SDS011;29660;42.892;24.710;2024-03-02T15:54:57;38.95;;;33.17;;
44000;SDS011;29660;42.892;24.710;2024-03-02T16:00:19;32.60;;;26.10;;
44000;SDS011;29660;42.892;24.710;2024-03-02T16:06:01;44.78;;;33.92;;
44000;SDS011;29660;42.892;24.710;2024-03-02T16:11:24;39.85;;;29.63;;
44000;SDS011;29660;42.892;24.710;2024-03-02T16:16:46;48.75;;;33.40;;
44000;SDS011;29660;42.892;24.710;2024-03-02T16:22:08;42.65;;;34.63;;
44000;SDS011;29660;42.892;24.710;2024-03-02T16:27:33;46.20;;;39.33;;
44000;SDS011;29660;42.892;24.710;2024-03-02T16:32:55;36.65;;;28.30;;
44000;SDS011;29660;42.892;24.710;2024-03-02T16:38:17;41.78;;;33.67;;
44000;SDS011;29660;42.892;24.710;2024-03-02T16:43:40;49.28;;;40.08;;
44000;SDS011;29660;42.892;24.710;2024-03-02T16:49:03;48.85;;;36.00;;
44000;SDS011;29660;42.892;24.710;2024-03-02T16:54:25;72.30;;;54.45;;
44000;SDS011;29660;42.892;24.710;2024-03-02T16:59:48;54.67;;;46.03;;
44000;SDS011;29660;42.892;24.710;2024-03-02T17:05:10;43.88;;;36.95;;
44000;SDS011;29660;42.892;24.710;2024-03-02T17:10:32;45.20;;;37.88;;
44000;SDS011;29660;42.892;24.710;2024-03-02T17:15:54;59.65;;;48.63;;
44000;SDS011;29660;42.892;24.710;2024-03-02T17:21:16;96.22;;;69.40;;
44000;SDS011;29660;42.892;24.710;2024-03-02T17:26:39;69.68;;;57.53;;
44000;SDS011;29660;42.892;24.710;2024-03-02T17:32:01;66.10;;;53.75;;
44000;SDS011;29660;42.892;24.710;2024-03-02T17:37:23;93.70;;;69.90;;
44000;SDS011;29660;42.892;24.710;2024-03-02T17:42:45;58.25;;;50.45;;
44000;SDS011;29660;42.892;24.710;2024-03-02T17:48:08;44.28;;;39.42;;
44000;SDS011;29660;42.892;24.710;2024-03-02T17:53:30;54.47;;;48.40;;
44000;SDS011;29660;42.892;24.710;2024-03-02T17:58:52;44.05;;;34.03;;
44000;SDS011;29660;42.892;24.710;2024-03-02T18:04:14;42.53;;;37.53;;
44000;SDS011;29660;42.892;24.710;2024-03-02T18:09:37;36.45;;;31.13;;
44000;SDS011;29660;42.892;24.710;2024-03-02T18:14:59;48.40;;;40.40;;
44000;SDS011;29660;42.892;24.710;2024-03-02T18:20:23;33.90;;;26.45;;
44000;SDS011;29660;42.892;24.710;2024-03-02T18:25:45;35.65;;;28.45;;
44000;SDS011;29660;42.892;24.710;2024-03-02T18:31:10;33.33;;;26.95;;
44000;SDS011;29660;42.892;24.710;2024-03-02T18:36:32;45.72;;;34.40;;
44000;SDS011;29660;42.892;24.710;2024-03-02T18:41:54;66.25;;;47.80;;
44000;SDS011;29660;42.892;24.710;2024-03-02T18:47:16;67.95;;;48.03;;
44000;SDS011;29660;42.892;24.710;2024-03-02T18:52:39;83.07;;;64.30;;
44000;SDS011;29660;42.892;24.710;2024-03-02T18:58:01;47.17;;;33.58;;
44000;SDS011;29660;42.892;24.710;2024-03-02T19:03:25;49.67;;;39.80;;
44000;SDS011;29660;42.892;24.710;2024-03-02T19:08:47;78.50;;;60.25;;
44000;SDS011;29660;42.892;24.710;2024-03-02T19:14:09;65.88;;;50.30;;
44000;SDS011;29660;42.892;24.710;2024-03-02T19:19:32;56.50;;;44.67;;
44000;SDS011;29660;42.892;24.710;2024-03-02T19:24:54;37.00;;;32.15;;
44000;SDS011;29660;42.892;24.710;2024-03-02T19:30:18;24.48;;;19.95;;
44000;SDS011;29660;42.892;24.710;2024-03-02T19:35:41;28.70;;;22.52;;
44000;SDS011;29660;42.892;24.710;2024-03-02T19:41:03;67.47;;;48.10;;
44000;SDS011;29660;42.892;24.710;2024-03-02T19:46:26;67.28;;;50.40;;
44000;SDS011;29660;42.892;24.710;2024-03-02T19:51:48;49.53;;;39.88;;
44000;SDS011;29660;42.892;24.710;2024-03-02T19:57:10;82.05;;;50.35;;
44000;SDS011;29660;42.892;24.710;2024-03-02T20:02:33;90.30;;;58.97;;
44000;SDS011;29660;42.892;24.710;2024-03-02T20:07:55;218.63;;;118.07;;
44000;SDS011;29660;42.892;24.710;2024-03-02T20:13:18;229.82;;;118.40;;
44000;SDS011;29660;42.892;24.710;2024-03-02T20:18:40;122.90;;;75.60;;
44000;SDS011;29660;42.892;24.710;2024-03-02T20:24:03;95.20;;;53.47;;
44000;SDS011;29660;42.892;24.710;2024-03-02T20:29:25;68.90;;;43.42;;
44000;SDS011;29660;42.892;24.710;2024-03-02T20:34:47;88.35;;;68.15;;
44000;SDS011;29660;42.892;24.710;2024-03-02T20:40:10;90.35;;;56.65;;
44000;SDS011;29660;42.892;24.710;2024-03-02T20:45:33;137.15;;;86.35;;
44000;SDS011;29660;42.892;24.710;2024-03-02T20:50:57;106.10;;;66.53;;
44000;SDS011;29660;42.892;24.710;2024-03-02T20:56:20;105.40;;;67.22;;
44000;SDS011;29660;42.892;24.710;2024-03-02T21:01:42;67.60;;;44.78;;
44000;SDS011;29660;42.892;24.710;2024-03-02T21:07:06;52.50;;;35.85;;
44000;SDS011;29660;42.892;24.710;2024-03-02T21:12:28;87.07;;;69.18;;
44000;SDS011;29660;42.892;24.710;2024-03-02T21:17:50;96.20;;;73.60;;
44000;SDS011;29660;42.892;24.710;2024-03-02T21:23:12;97.53;;;72.05;;
44000;SDS011;29660;42.892;24.710;2024-03-02T21:28:36;99.70;;;74.22;;
44000;SDS011;29660;42.892;24.710;2024-03-02T21:33:58;92.45;;;71.28;;
44000;SDS011;29660;42.892;24.710;2024-03-02T21:39:20;105.13;;;83.30;;
44000;SDS011;29660;42.892;24.710;2024-03-02T21:44:49;85.97;;;72.28;;
44000;SDS011;29660;42.892;24.710;2024-03-02T21:50:11;75.85;;;58.95;;
44000;SDS011;29660;42.892;24.710;2024-03-02T21:55:34;57.90;;;44.70;;
44000;SDS011;29660;42.892;24.710;2024-03-02T22:00:56;60.42;;;45.50;;
44000;SDS011;29660;42.892;24.710;2024-03-02T22:06:19;45.67;;;36.13;;
44000;SDS011;29660;42.892;24.710;2024-03-02T22:11:41;36.65;;;29.08;;
44000;SDS011;29660;42.892;24.710;2024-03-02T22:17:03;28.20;;;22.75;;
44000;SDS011;29660;42.892;24.710;2024-03-02T22:22:26;29.77;;;19.83;;
44000;SDS011;29660;42.892;24.710;2024-03-02T22:27:48;27.02;;;17.80;;
44000;SDS011;29660;42.892;24.710;2024-03-02T22:33:16;18.70;;;14.13;;
44000;SDS011;29660;42.892;24.710;2024-03-02T22:38:39;15.25;;;12.10;;
44000;SDS011;29660;42.892;24.710;2024-03-02T22:44:01;18.20;;;13.27;;
44000;SDS011;29660;42.892;24.710;2024-03-02T22:49:23;14.65;;;11.63;;
44000;SDS011;29660;42.892;24.710;2024-03-02T22:54:45;17.05;;;14.10;;
44000;SDS011;29660;42.892;24.710;2024-03-02T23:00:07;14.48;;;12.02;;
44000;SDS011;29660;42.892;24.710;2024-03-02T23:05:42;15.23;;;11.65;;
44000;SDS011;29660;42.892;24.710;2024-03-02T23:11:04;19.70;;;15.60;;
44000;SDS011;29660;42.892;24.710;2024-03-02T23:16:26;21.60;;;16.73;;
44000;SDS011;29660;42.892;24.710;2024-03-02T23:21:50;23.45;;;18.20;;
44000;SDS011;29660;42.892;24.710;2024-03-02T23:27:13;13.02;;;10.30;;
44000;SDS011;29660;42.892;24.710;2024-03-02T23:32:36;56.13;;;36.65;;
44000;SDS011;29660;42.892;24.710;2024-03-02T23:37:58;47.58;;;28.83;;
44000;SDS011;29660;42.892;24.710;2024-03-02T23:43:20;49.83;;;31.00;;
44000;SDS011;29660;42.892;24.710;2024-03-02T23:48:42;32.05;;;23.70;;
44000;SDS011;29660;42.892;24.710;2024-03-02T23:54:05;34.40;;;24.38;;
44000;SDS011;29660;42.892;24.710;2024-03-02T23:59:27;33.50;;;23.17;;
